Latest Coastal Weather Observations for Learmonth

IDW60701

Issued at 10:22 pm WST Sunday 21 December 2014 (issued every 10 minutes, with the page automatically refreshed every 10 minutes)

About coastal observations | Map of coastal stations | Coastal observations for WA | Marine services | Other Formats
Station Details ID: 005007 Name: LEARMONTH AIRPORT Lat: -22.24 Lon: 114.10 Height: 5.0 m
Data from the previous 72 hours. | See also: Recent months at Learmonth
Date/Time
WST
Temp

°C
Wind Pressure Rain
since 9am
mm
Weather Cloud Vis
km
Sea
Height
m
Swell
Dir
 
Speed
knots
Gust
knots
hPa Trend Height
m
Period
s
Dir
21/10:00pm 25.2 SW 13 16 1007.8 - 0.0 - - 10 - - - -
21/09:30pm 25.4 SW 12 15 1007.6 - 0.0 - - 10 - - - -
21/09:00pm 25.5 SW 13 16 1007.3 - 0.0 - - 10 - - - -
21/08:30pm 26.0 SW 11 17 1007.3 - 0.0 - - 10 - - - -
21/08:00pm 26.6 WSW 11 15 1007.0 - 0.0 - - 10 - - - -
21/07:30pm 27.5 WSW 15 20 1006.6 - 0.0 - - 10 - - - -
21/07:00pm 28.2 WSW 14 19 1006.3 - 0.0 - - 10 - - - -
21/06:30pm 29.5 WSW 17 21 1006.2 - 0.0 - - 10 - - - -
21/06:00pm 31.3 WSW 14 19 1005.8 - 0.0 - - 10 - - - -
21/05:30pm 32.8 WSW 15 19 1005.7 - 0.0 - - 10 - - - -
21/05:00pm 34.2 W 16 19 1005.5 - 0.0 - - 10 - - - -
21/04:30pm 34.4 W 15 20 1005.5 - 0.0 - - 10 - - - -
21/04:00pm 35.0 NW 13 17 1005.4 - 0.0 - - 10 - - - -
21/03:30pm 33.6 N 11 13 1005.6 - 0.0 - - 10 - - - -
21/03:00pm 33.7 N 12 15 1005.9 - 0.0 - - 10 - - - -
21/02:30pm 34.4 N 10 12 1006.3 - 0.0 - - 10 - - - -
21/02:00pm 33.0 NNE 11 14 1006.5 - 0.0 - - 10 - - - -
21/01:30pm 33.6 NE 10 13 1006.9 - 0.0 - - 10 - - - -
21/01:00pm 32.9 E 12 15 1007.2 - 0.0 - - 10 - - - -
21/12:30pm 33.0 E 13 15 1007.6 - 0.0 - - 10 - - - -
21/12:00pm 32.5 E 12 15 1007.9 - 0.0 - - 10 - - - -
21/11:30am 32.9 ESE 10 15 1008.3 - 0.0 - - 10 - - - -
21/11:00am 31.7 ESE 9 14 1008.8 - 0.0 - - 10 - - - -
21/10:30am 31.1 SE 7 11 1009.0 - 0.0 - - 10 - - - -
21/10:00am 30.3 S 7 13 1009.2 - 0.0 - - 10 - - - -
21/09:30am 29.0 SSW 10 13 1009.3 - 0.0 - - 10 - - - -
21/09:00am 27.7 S 10 14 1009.3 - 0.0 - - 10 - - - -
21/08:30am 26.9 S 13 18 1009.5 - 0.0 - - 10 - - - -
21/08:00am 24.6 SSW 13 17 1009.4 - 0.0 - - 10 - - - -
21/07:30am 23.2 SSW 13 17 1009.7 - 0.0 - - 10 - - - -
21/07:00am 22.1 SSW 14 16 1009.8 - 0.0 - - 10 - - - -
21/06:30am 21.1 SSW 11 15 1009.7 - 0.0 - - 10 - - - -
21/06:00am 20.3 SSW 11 14 1009.5 - 0.0 - - 10 - - - -
21/05:30am 20.3 SSW 12 17 1009.2 - 0.0 - - 10 - - - -
21/05:00am 20.3 SSW 11 15 1008.8 - 0.0 - - 10 - - - -
21/04:30am 20.6 SSW 12 15 1008.7 - 0.0 - - 10 - - - -
21/04:00am 20.7 SSW 12 15 1008.7 - 0.0 - - 10 - - - -
21/03:30am 20.9 SSW 11 15 1008.8 - 0.0 - - 10 - - - -
21/03:00am 21.0 SSW 12 15 1008.7 - 0.0 - - 10 - - - -
21/02:30am 21.2 SSW 13 18 1008.6 - 0.0 - - 10 - - - -
21/02:00am 21.3 SSW 13 17 1008.7 - 0.0 - - 10 - - - -
21/01:30am 21.6 SSW 13 18 1008.7 - 0.0 - - 10 - - - -
21/01:00am 21.8 SSW 13 18 1008.6 - 0.0 - - 10 - - - -
21/12:30am 21.9 SSW 13 17 1008.9 - 0.0 - - 10 - - - -
21/12:00am 22.0 SSW 14 19 1008.9 - 0.0 - - 10 - - - -
 
Date/Time
WST
Temp

°C
Wind Pressure Rain
since 9am
mm
Weather Cloud Vis
km
Sea
Height
m
Swell
Dir
 
Speed
knots
Gust
knots
hPa Trend Height
m
Period
s
Dir
20/11:30pm 22.3 SSW 15 18 1009.2 - 0.0 - - 10 - - - -
20/11:00pm 22.6 SSW 16 22 1009.3 - 0.0 - - 10 - - - -
20/10:30pm 22.9 SSW 11 14 1009.6 - 0.0 - - 10 - - - -
20/10:00pm 23.1 SSW 12 16 1009.6 - 0.0 - - 10 - - - -
20/09:30pm 23.3 SSW 14 19 1009.2 - 0.0 - - 10 - - - -
20/09:00pm 23.6 SW 15 19 1008.8 - 0.0 - - 10 - - - -
20/08:30pm 23.9 SW 14 20 1008.8 - 0.0 - - 10 - - - -
20/08:00pm 24.2 SW 15 23 1008.7 - 0.0 - - 10 - - - -
20/07:30pm 24.7 SW 17 22 1008.2 - 0.0 - - 10 - - - -
20/07:00pm 25.5 SW 17 25 1007.8 - 0.0 - - 10 - - - -
20/06:30pm 27.1 SW 17 22 1007.7 - 0.0 - - 10 - - - -
20/06:00pm 28.7 SW 17 22 1007.2 - 0.0 - - 10 - - - -
20/05:30pm 29.7 SW 19 25 1007.2 - 0.0 - - 10 - - - -
20/05:00pm 31.2 SW 17 24 1007.1 - 0.0 - - 10 - - - -
20/04:30pm 32.3 SSW 17 22 1007.1 - 0.0 - - 10 - - - -
20/04:00pm 32.9 SSW 17 23 1007.3 - 0.0 - - 10 - - - -
20/03:30pm 34.6 SW 15 22 1007.4 - 0.0 - - 10 - - - -
20/03:22pm 34.5 SW 17 22 1007.5 - 0.0 - - 10 - - - -
20/03:00pm 34.4 ESE 6 10 1007.6 - 0.0 - - 10 - - - -
20/02:30pm 32.4 NNE 9 13 1008.0 - 0.0 - - 10 - - - -
20/02:00pm 33.6 NE 8 11 1008.2 - 0.0 - - 10 - - - -
20/01:30pm 35.4 W 8 11 1008.3 - 0.0 - - 10 - - - -
20/01:00pm 35.5 SW 10 15 1008.6 - 0.0 - - 10 - - - -
20/12:30pm 33.4 E 10 13 1009.0 - 0.0 - - 10 - - - -
20/12:00pm 32.7 ESE 9 14 1009.4 - 0.0 - - 10 - - - -
20/11:30am 33.7 S 6 11 1009.8 - 0.0 - - 10 - - - -
20/11:00am 32.9 SW 8 14 1010.1 - 0.0 - - 10 - - - -
20/10:30am 30.6 SW 11 13 1010.6 - 0.0 - - 10 - - - -
20/10:00am 29.6 SSW 10 15 1011.0 - 0.0 - - 10 - - - -
20/09:30am 29.0 SSW 13 16 1011.3 - 0.0 - - 10 - - - -
20/09:00am 27.0 S 12 16 1011.6 - 0.0 - - 10 - - - -
20/08:30am 25.7 S 13 17 1011.9 - 0.0 - - 10 - - - -
20/08:00am 24.7 S 13 17 1011.8 - 0.0 - - 10 - - - -
20/07:30am 23.4 SSW 15 19 1011.7 - 0.0 - - 10 - - - -
20/07:00am 22.3 S 15 19 1011.7 - 0.0 - - 10 - - - -
20/06:30am 21.1 SSW 12 15 1011.4 - 0.0 - - 10 - - - -
20/06:00am 20.2 SSW 11 13 1011.0 - 0.0 - - 10 - - - -
20/05:30am 20.0 SSW 10 12 1010.9 - 0.0 - - 10 - - - -
20/05:00am 20.2 SSW 9 12 1010.6 - 0.0 - - 10 - - - -
20/04:30am 20.4 SSW 10 12 1010.5 - 0.0 - - 10 - - - -
20/04:00am 20.6 SSW 9 11 1010.6 - 0.0 - - 10 - - - -
20/03:30am 20.8 SSW 10 13 1010.5 - 0.0 - - 10 - - - -
20/03:00am 21.0 SSW 10 13 1010.5 - 0.0 - - 10 - - - -
20/02:30am 21.3 SSW 11 15 1010.3 - 0.0 - - 10 - - - -
20/02:00am 21.4 SSW 13 17 1010.1 - 0.0 - - 10 - - - -
20/01:30am 21.6 SSW 11 13 1010.3 - 0.0 - - 10 - - - -
20/01:00am 21.9 SSW 11 15 1010.6 - 0.0 - - 10 - - - -
20/12:30am 22.2 SW 11 16 1010.7 - 0.0 - - 10 - - - -
20/12:00am 22.3 SW 13 17 1011.0 - 0.0 - - 10 - - - -
 
Date/Time
WST
Temp

°C
Wind Pressure Rain
since 9am
mm
Weather Cloud Vis
km
Sea
Height
m
Swell
Dir
 
Speed
knots
Gust
knots
hPa Trend Height
m
Period
s
Dir
19/11:30pm 22.4 SSW 12 16 1011.4 - 0.0 - - 10 - - - -
19/11:00pm 22.7 SSW 11 15 1011.7 - 0.0 - - 10 - - - -
19/10:30pm 23.1 SSW 12 16 1011.7 - 0.0 - - 10 - - - -
19/10:00pm 23.4 SW 13 17 1011.5 - 0.0 - - 10 - - - -
19/09:30pm 23.8 SW 14 18 1011.1 - 0.0 - - 10 - - - -
19/09:00pm 24.4 SW 13 17 1010.8 - 0.0 - - 10 - - - -
19/08:30pm 25.1 SW 14 18 1010.6 - 0.0 - - 10 - - - -
19/08:00pm 26.2 WSW 12 15 1010.6 - 0.0 - - 10 - - - -
19/07:30pm 27.1 SW 13 16 1010.2 - 0.0 - - 10 - - - -
19/07:00pm 28.8 WSW 12 15 1009.8 - 0.0 - - 10 - - - -
19/06:30pm 30.2 SW 14 17 1009.2 - 0.0 - - 10 - - - -
19/06:00pm 31.9 W 13 17 1008.7 - 0.0 - - 10 - - - -
19/05:30pm 33.2 W 13 16 1008.3 - 0.0 - - 10 - - - -
19/05:00pm 33.8 WSW 13 17 1008.0 - 0.0 - - 10 - - - -
19/04:30pm 34.5 W 14 19 1007.9 - 0.0 - - 10 - - - -
19/04:00pm 35.1 W 15 19 1007.6 - 0.0 - - 10 - - - -
19/03:30pm 35.3 W 14 19 1007.9 - 0.0 - - 10 - - - -
19/03:00pm 35.9 W 13 17 1007.9 - 0.0 - - 10 - - - -
19/02:30pm 35.6 W 12 15 1008.1 - 0.0 - - 10 - - - -
19/02:00pm 35.8 WSW 11 13 1008.3 - 0.0 - - 10 - - - -
19/01:30pm 34.1 NNE 11 14 1008.3 - 0.0 - - 10 - - - -
19/01:00pm 33.7 NE 10 14 1008.5 - 0.0 - - 10 - - - -
19/12:30pm 31.6 NNE 10 12 1008.9 - 0.0 - - 10 - - - -
19/12:00pm 33.2 ENE 9 11 1009.0 - 0.0 - - 10 - - - -
19/11:30am 34.2 ENE 7 10 1009.4 - 0.0 - - 10 - - - -
19/11:00am 34.6 W 7 11 1009.7 - 0.0 - - 10 - - - -
19/10:30am 34.1 WSW 8 11 1009.9 - 0.0 - - 10 - - - -
19/10:00am 33.0 SW 6 11 1010.2 - 0.0 - - 10 - - - -
19/09:30am 31.6 WSW 7 10 1010.3 - 0.0 - - 10 - - - -
19/09:00am 30.3 WSW 9 13 1010.2 - 0.0 - - 10 - - - -
19/08:30am 29.0 SW 11 15 1010.4 - 0.0 - - 10 - - - -
19/08:00am 27.5 SW 11 14 1010.0 - 0.0 - - 10 - - - -
19/07:30am 25.9 SW 12 16 1009.9 - 0.0 - - 10 - - - -
19/07:00am 24.5 SW 11 14 1009.5 - 0.0 - - 10 - - - -
19/06:30am 23.3 WSW 9 12 1009.3 - 0.0 - - 10 - - - -
19/06:00am 22.3 SW 9 11 1008.8 - 0.0 - - 10 - - - -
19/05:30am 22.1 SW 9 13 1008.6 - 0.0 - - 10 - - - -
19/05:00am 22.0 SW 9 12 1008.5 - 0.0 - - 10 - - - -
19/04:30am 21.9 SW 9 11 1008.3 - 0.0 - - 10 - - - -
19/04:00am 22.3 SSW 7 10 1008.4 - 0.0 - - 10 - - - -
19/03:30am 22.7 SW 9 13 1008.2 - 0.0 - - 10 - - - -
19/03:00am 22.9 WSW 11 15 1007.8 - 0.0 - - 10 - - - -
19/02:30am 23.2 SW 11 15 1007.9 - 0.0 - - 10 - - - -
19/02:00am 23.3 SW 13 17 1007.9 - 0.0 - - 10 - - - -
19/01:30am 23.3 SW 13 16 1008.2 - 0.0 - - 10 - - - -
19/01:00am 23.6 SW 12 15 1008.4 - 0.0 - - 10 - - - -
19/12:30am 23.8 SW 11 14 1008.6 - 0.0 - - 10 - - - -
19/12:00am 23.9 SW 11 15 1008.6 - 0.0 - - 10 - - - -
 
Date/Time
WST
Temp

°C
Wind Pressure Rain
since 9am
mm
Weather Cloud Vis
km
Sea
Height
m
Swell
Dir
 
Speed
knots
Gust
knots
hPa Trend Height
m
Period
s
Dir
18/11:30pm 24.0 SW 12 15 1008.9 - 0.0 - - 10 - - - -
18/11:00pm 24.4 SW 11 16 1008.8 - 0.0 - - 10 - - - -
18/10:30pm 24.6 SW 13 19 1008.6 - 0.0 - - 10 - - - -

Other Formats:

Comma delimited format used in spreadsheet applications
http://www.bom.gov.au/fwo/IDW60701/IDW60701.94302.axf

JavaScript Object Notation format (JSON) in row-major order
http://www.bom.gov.au/fwo/IDW60701/IDW60701.94302.json